sensor_id;sensor_type;location;lat;lon;timestamp;P1;durP1;ratioP1;P2;durP2;ratioP2
78489;SDS011;67776;52.012;4.736;2024-02-21T00:02:02;16.83;;;2.70;;
78489;SDS011;67776;52.012;4.736;2024-02-21T00:04:27;22.10;;;3.80;;
78489;SDS011;67776;52.012;4.736;2024-02-21T00:06:53;12.23;;;3.03;;
78489;SDS011;67776;52.012;4.736;2024-02-21T00:09:18;14.20;;;2.80;;
78489;SDS011;67776;52.012;4.736;2024-02-21T00:11:44;15.68;;;2.85;;
78489;SDS011;67776;52.012;4.736;2024-02-21T00:14:09;14.70;;;2.80;;
78489;SDS011;67776;52.012;4.736;2024-02-21T00:16:35;18.27;;;2.73;;
78489;SDS011;67776;52.012;4.736;2024-02-21T00:19:00;13.90;;;2.60;;
78489;SDS011;67776;52.012;4.736;2024-02-21T00:21:25;15.80;;;3.17;;
78489;SDS011;67776;52.012;4.736;2024-02-21T00:23:52;16.27;;;4.10;;
78489;SDS011;67776;52.012;4.736;2024-02-21T00:26:17;14.15;;;3.25;;
78489;SDS011;67776;52.012;4.736;2024-02-21T00:28:43;15.27;;;3.27;;
78489;SDS011;67776;52.012;4.736;2024-02-21T00:31:08;14.30;;;3.37;;
78489;SDS011;67776;52.012;4.736;2024-02-21T00:33:33;15.63;;;3.90;;
78489;SDS011;67776;52.012;4.736;2024-02-21T00:35:59;15.60;;;3.43;;
78489;SDS011;67776;52.012;4.736;2024-02-21T00:38:24;15.73;;;3.80;;
78489;SDS011;67776;52.012;4.736;2024-02-21T00:40:49;14.67;;;4.17;;
78489;SDS011;67776;52.012;4.736;2024-02-21T00:43:15;13.77;;;3.63;;
78489;SDS011;67776;52.012;4.736;2024-02-21T00:45:40;14.77;;;3.60;;
78489;SDS011;67776;52.012;4.736;2024-02-21T00:48:06;17.10;;;4.60;;
78489;SDS011;67776;52.012;4.736;2024-02-21T00:50:31;18.17;;;3.97;;
78489;SDS011;67776;52.012;4.736;2024-02-21T00:52:57;19.40;;;4.23;;
78489;SDS011;67776;52.012;4.736;2024-02-21T00:55:23;16.27;;;4.03;;
78489;SDS011;67776;52.012;4.736;2024-02-21T00:57:48;13.60;;;3.70;;
78489;SDS011;67776;52.012;4.736;2024-02-21T01:00:13;21.27;;;4.97;;
78489;SDS011;67776;52.012;4.736;2024-02-21T01:02:39;12.90;;;3.60;;
78489;SDS011;67776;52.012;4.736;2024-02-21T01:05:04;19.70;;;3.97;;
78489;SDS011;67776;52.012;4.736;2024-02-21T01:07:30;15.88;;;4.10;;
78489;SDS011;67776;52.012;4.736;2024-02-21T01:09:55;16.53;;;4.07;;
78489;SDS011;67776;52.012;4.736;2024-02-21T01:12:21;14.10;;;3.93;;
78489;SDS011;67776;52.012;4.736;2024-02-21T01:14:46;16.73;;;4.13;;
78489;SDS011;67776;52.012;4.736;2024-02-21T01:17:11;14.63;;;4.87;;
78489;SDS011;67776;52.012;4.736;2024-02-21T01:19:37;16.25;;;3.92;;
78489;SDS011;67776;52.012;4.736;2024-02-21T01:22:03;12.60;;;4.03;;
78489;SDS011;67776;52.012;4.736;2024-02-21T01:24:29;17.40;;;4.70;;
78489;SDS011;67776;52.012;4.736;2024-02-21T01:26:54;21.17;;;4.50;;
78489;SDS011;67776;52.012;4.736;2024-02-21T01:29:19;17.43;;;4.57;;
78489;SDS011;67776;52.012;4.736;2024-02-21T01:31:45;16.77;;;4.32;;
78489;SDS011;67776;52.012;4.736;2024-02-21T01:34:10;16.00;;;4.10;;
78489;SDS011;67776;52.012;4.736;2024-02-21T01:36:36;16.87;;;4.33;;
78489;SDS011;67776;52.012;4.736;2024-02-21T01:39:04;16.37;;;4.13;;
78489;SDS011;67776;52.012;4.736;2024-02-21T01:41:30;17.17;;;4.00;;
78489;SDS011;67776;52.012;4.736;2024-02-21T01:43:56;14.38;;;4.28;;
78489;SDS011;67776;52.012;4.736;2024-02-21T01:46:24;15.60;;;4.50;;
78489;SDS011;67776;52.012;4.736;2024-02-21T01:48:54;19.60;;;4.32;;
78489;SDS011;67776;52.012;4.736;2024-02-21T01:51:20;13.35;;;4.05;;
78489;SDS011;67776;52.012;4.736;2024-02-21T01:53:45;16.20;;;4.20;;
78489;SDS011;67776;52.012;4.736;2024-02-21T01:56:11;17.63;;;4.40;;
78489;SDS011;67776;52.012;4.736;2024-02-21T01:58:37;13.25;;;3.80;;
78489;SDS011;67776;52.012;4.736;2024-02-21T02:01:05;20.42;;;4.63;;
78489;SDS011;67776;52.012;4.736;2024-02-21T02:03:31;13.00;;;4.10;;
78489;SDS011;67776;52.012;4.736;2024-02-21T02:05:56;17.33;;;5.13;;
78489;SDS011;67776;52.012;4.736;2024-02-21T02:08:21;14.63;;;4.60;;
78489;SDS011;67776;52.012;4.736;2024-02-21T02:10:47;13.60;;;3.83;;
78489;SDS011;67776;52.012;4.736;2024-02-21T02:13:13;16.95;;;4.47;;
78489;SDS011;67776;52.012;4.736;2024-02-21T02:18:11;11.25;;;4.32;;
78489;SDS011;67776;52.012;4.736;2024-02-21T02:20:39;15.75;;;4.70;;
78489;SDS011;67776;52.012;4.736;2024-02-21T02:23:09;15.73;;;4.90;;
78489;SDS011;67776;52.012;4.736;2024-02-21T02:25:51;19.73;;;4.80;;
78489;SDS011;67776;52.012;4.736;2024-02-21T02:28:17;15.37;;;5.07;;
78489;SDS011;67776;52.012;4.736;2024-02-21T02:30:43;15.05;;;4.95;;
78489;SDS011;67776;52.012;4.736;2024-02-21T02:33:09;16.60;;;5.57;;
78489;SDS011;67776;52.012;4.736;2024-02-21T02:35:34;15.82;;;5.15;;
78489;SDS011;67776;52.012;4.736;2024-02-21T02:38:03;15.88;;;5.10;;
78489;SDS011;67776;52.012;4.736;2024-02-21T02:40:29;21.37;;;5.40;;
78489;SDS011;67776;52.012;4.736;2024-02-21T02:42:54;22.35;;;5.55;;
78489;SDS011;67776;52.012;4.736;2024-02-21T02:45:20;18.13;;;5.33;;
78489;SDS011;67776;52.012;4.736;2024-02-21T02:47:48;15.85;;;5.38;;
78489;SDS011;67776;52.012;4.736;2024-02-21T02:50:13;15.20;;;5.07;;
78489;SDS011;67776;52.012;4.736;2024-02-21T02:52:39;17.02;;;5.40;;
78489;SDS011;67776;52.012;4.736;2024-02-21T02:55:04;17.67;;;4.80;;
78489;SDS011;67776;52.012;4.736;2024-02-21T02:57:30;13.48;;;5.63;;
78489;SDS011;67776;52.012;4.736;2024-02-21T02:59:56;19.60;;;5.77;;
78489;SDS011;67776;52.012;4.736;2024-02-21T03:02:21;13.20;;;5.40;;
78489;SDS011;67776;52.012;4.736;2024-02-21T03:04:47;16.55;;;6.38;;
78489;SDS011;67776;52.012;4.736;2024-02-21T03:07:13;17.60;;;5.70;;
78489;SDS011;67776;52.012;4.736;2024-02-21T03:09:39;13.10;;;5.70;;
78489;SDS011;67776;52.012;4.736;2024-02-21T03:12:05;13.70;;;6.00;;
78489;SDS011;67776;52.012;4.736;2024-02-21T03:14:34;16.10;;;6.15;;
78489;SDS011;67776;52.012;4.736;2024-02-21T03:16:59;17.45;;;5.85;;
78489;SDS011;67776;52.012;4.736;2024-02-21T03:19:25;16.20;;;5.30;;
78489;SDS011;67776;52.012;4.736;2024-02-21T03:21:51;19.90;;;5.30;;
78489;SDS011;67776;52.012;4.736;2024-02-21T03:24:17;15.25;;;5.43;;
78489;SDS011;67776;52.012;4.736;2024-02-21T03:26:43;16.13;;;5.68;;
78489;SDS011;67776;52.012;4.736;2024-02-21T03:29:08;17.03;;;5.13;;
78489;SDS011;67776;52.012;4.736;2024-02-21T03:31:34;16.30;;;5.10;;
78489;SDS011;67776;52.012;4.736;2024-02-21T03:34:00;20.73;;;5.13;;
78489;SDS011;67776;52.012;4.736;2024-02-21T03:36:26;15.98;;;4.95;;
78489;SDS011;67776;52.012;4.736;2024-02-21T03:38:51;19.97;;;4.97;;
78489;SDS011;67776;52.012;4.736;2024-02-21T03:41:16;15.70;;;5.77;;
78489;SDS011;67776;52.012;4.736;2024-02-21T03:43:41;18.47;;;5.03;;
78489;SDS011;67776;52.012;4.736;2024-02-21T03:46:07;15.80;;;4.73;;
78489;SDS011;67776;52.012;4.736;2024-02-21T03:48:32;14.40;;;4.60;;
78489;SDS011;67776;52.012;4.736;2024-02-21T03:50:58;14.77;;;4.90;;
78489;SDS011;67776;52.012;4.736;2024-02-21T03:53:24;16.48;;;4.93;;
78489;SDS011;67776;52.012;4.736;2024-02-21T03:55:49;16.90;;;5.57;;
78489;SDS011;67776;52.012;4.736;2024-02-21T03:58:14;19.23;;;4.77;;
78489;SDS011;67776;52.012;4.736;2024-02-21T04:00:40;12.80;;;4.57;;
78489;SDS011;67776;52.012;4.736;2024-02-21T04:03:06;12.85;;;4.20;;
78489;SDS011;67776;52.012;4.736;2024-02-21T04:05:31;12.60;;;4.80;;
78489;SDS011;67776;52.012;4.736;2024-02-21T04:07:57;17.27;;;5.43;;
78489;SDS011;67776;52.012;4.736;2024-02-21T04:10:22;14.53;;;5.33;;
78489;SDS011;67776;52.012;4.736;2024-02-21T04:12:47;15.40;;;5.53;;
78489;SDS011;67776;52.012;4.736;2024-02-21T04:15:15;15.77;;;5.65;;
78489;SDS011;67776;52.012;4.736;2024-02-21T04:17:41;13.30;;;5.17;;
78489;SDS011;67776;52.012;4.736;2024-02-21T04:20:06;16.97;;;5.60;;
78489;SDS011;67776;52.012;4.736;2024-02-21T04:22:39;12.93;;;5.50;;
78489;SDS011;67776;52.012;4.736;2024-02-21T04:25:04;12.70;;;5.50;;
78489;SDS011;67776;52.012;4.736;2024-02-21T04:27:30;16.42;;;5.45;;
78489;SDS011;67776;52.012;4.736;2024-02-21T04:29:55;14.40;;;5.57;;
78489;SDS011;67776;52.012;4.736;2024-02-21T04:32:20;11.10;;;5.40;;
78489;SDS011;67776;52.012;4.736;2024-02-21T04:34:46;12.60;;;5.43;;
78489;SDS011;67776;52.012;4.736;2024-02-21T04:37:11;12.33;;;4.87;;
78489;SDS011;67776;52.012;4.736;2024-02-21T04:39:36;15.83;;;5.97;;
78489;SDS011;67776;52.012;4.736;2024-02-21T04:42:02;14.40;;;5.40;;
78489;SDS011;67776;52.012;4.736;2024-02-21T04:44:27;15.03;;;5.37;;
78489;SDS011;67776;52.012;4.736;2024-02-21T04:46:52;16.73;;;5.70;;
78489;SDS011;67776;52.012;4.736;2024-02-21T04:49:18;14.97;;;5.40;;
78489;SDS011;67776;52.012;4.736;2024-02-21T04:51:43;15.57;;;5.50;;
78489;SDS011;67776;52.012;4.736;2024-02-21T04:54:09;15.27;;;5.70;;
78489;SDS011;67776;52.012;4.736;2024-02-21T04:56:34;16.67;;;5.53;;
78489;SDS011;67776;52.012;4.736;2024-02-21T04:58:59;13.97;;;5.73;;
78489;SDS011;67776;52.012;4.736;2024-02-21T05:01:25;14.13;;;5.87;;
78489;SDS011;67776;52.012;4.736;2024-02-21T05:03:50;14.43;;;6.10;;
78489;SDS011;67776;52.012;4.736;2024-02-21T05:06:16;18.57;;;6.80;;
78489;SDS011;67776;52.012;4.736;2024-02-21T05:08:41;13.52;;;6.13;;
78489;SDS011;67776;52.012;4.736;2024-02-21T05:11:09;13.20;;;6.22;;
78489;SDS011;67776;52.012;4.736;2024-02-21T05:13:35;13.80;;;5.80;;
78489;SDS011;67776;52.012;4.736;2024-02-21T05:16:00;19.07;;;6.00;;
78489;SDS011;67776;52.012;4.736;2024-02-21T05:18:27;17.77;;;6.50;;
78489;SDS011;67776;52.012;4.736;2024-02-21T05:20:52;13.20;;;6.10;;
78489;SDS011;67776;52.012;4.736;2024-02-21T05:23:18;18.50;;;6.70;;
78489;SDS011;67776;52.012;4.736;2024-02-21T05:25:43;17.53;;;6.40;;
78489;SDS011;67776;52.012;4.736;2024-02-21T05:28:08;20.13;;;7.00;;
78489;SDS011;67776;52.012;4.736;2024-02-21T05:30:34;17.73;;;7.13;;
78489;SDS011;67776;52.012;4.736;2024-02-21T05:33:03;17.63;;;7.53;;
78489;SDS011;67776;52.012;4.736;2024-02-21T05:35:29;15.07;;;7.23;;
78489;SDS011;67776;52.012;4.736;2024-02-21T05:37:55;18.47;;;8.43;;
78489;SDS011;67776;52.012;4.736;2024-02-21T05:40:20;15.83;;;8.07;;
78489;SDS011;67776;52.012;4.736;2024-02-21T05:42:45;16.83;;;8.43;;
78489;SDS011;67776;52.012;4.736;2024-02-21T05:45:11;17.30;;;8.83;;
78489;SDS011;67776;52.012;4.736;2024-02-21T05:47:36;20.33;;;9.07;;
78489;SDS011;67776;52.012;4.736;2024-02-21T05:50:01;17.80;;;8.53;;
78489;SDS011;67776;52.012;4.736;2024-02-21T05:52:27;21.17;;;9.43;;
78489;SDS011;67776;52.012;4.736;2024-02-21T05:54:52;20.83;;;9.13;;
78489;SDS011;67776;52.012;4.736;2024-02-21T05:57:18;19.67;;;9.70;;
78489;SDS011;67776;52.012;4.736;2024-02-21T05:59:43;21.73;;;9.90;;
78489;SDS011;67776;52.012;4.736;2024-02-21T06:02:09;20.77;;;9.83;;
78489;SDS011;67776;52.012;4.736;2024-02-21T06:04:34;21.47;;;9.50;;
78489;SDS011;67776;52.012;4.736;2024-02-21T06:07:00;21.55;;;9.35;;
78489;SDS011;67776;52.012;4.736;2024-02-21T06:09:26;23.27;;;8.93;;
78489;SDS011;67776;52.012;4.736;2024-02-21T06:11:52;19.85;;;8.98;;
78489;SDS011;67776;52.012;4.736;2024-02-21T06:14:17;17.33;;;9.00;;
78489;SDS011;67776;52.012;4.736;2024-02-21T06:16:43;23.47;;;9.40;;
78489;SDS011;67776;52.012;4.736;2024-02-21T06:19:09;22.25;;;9.30;;
78489;SDS011;67776;52.012;4.736;2024-02-21T06:21:34;20.40;;;9.10;;
78489;SDS011;67776;52.012;4.736;2024-02-21T06:23:59;21.17;;;9.07;;
78489;SDS011;67776;52.012;4.736;2024-02-21T06:26:25;19.37;;;9.03;;
78489;SDS011;67776;52.012;4.736;2024-02-21T06:28:50;23.02;;;9.10;;
78489;SDS011;67776;52.012;4.736;2024-02-21T06:31:15;23.13;;;9.60;;
78489;SDS011;67776;52.012;4.736;2024-02-21T06:33:41;23.17;;;9.10;;
78489;SDS011;67776;52.012;4.736;2024-02-21T06:36:06;22.60;;;9.23;;
78489;SDS011;67776;52.012;4.736;2024-02-21T06:38:32;20.77;;;9.40;;
78489;SDS011;67776;52.012;4.736;2024-02-21T06:40:58;20.27;;;8.70;;
78489;SDS011;67776;52.012;4.736;2024-02-21T06:43:25;20.50;;;8.77;;
78489;SDS011;67776;52.012;4.736;2024-02-21T06:45:50;19.90;;;8.40;;
78489;SDS011;67776;52.012;4.736;2024-02-21T06:48:16;18.00;;;8.53;;
78489;SDS011;67776;52.012;4.736;2024-02-21T06:50:43;21.88;;;8.13;;
78489;SDS011;67776;52.012;4.736;2024-02-21T06:53:08;22.33;;;8.70;;
78489;SDS011;67776;52.012;4.736;2024-02-21T06:55:33;23.80;;;8.77;;
78489;SDS011;67776;52.012;4.736;2024-02-21T06:57:59;18.27;;;8.67;;
78489;SDS011;67776;52.012;4.736;2024-02-21T07:00:24;19.70;;;8.67;;
78489;SDS011;67776;52.012;4.736;2024-02-21T07:02:51;22.83;;;9.98;;
78489;SDS011;67776;52.012;4.736;2024-02-21T07:05:16;22.27;;;9.13;;
78489;SDS011;67776;52.012;4.736;2024-02-21T07:07:42;24.03;;;9.90;;
78489;SDS011;67776;52.012;4.736;2024-02-21T07:10:07;22.73;;;9.40;;
78489;SDS011;67776;52.012;4.736;2024-02-21T07:12:33;23.70;;;8.63;;
78489;SDS011;67776;52.012;4.736;2024-02-21T07:15:00;25.23;;;9.52;;
78489;SDS011;67776;52.012;4.736;2024-02-21T07:17:25;24.77;;;9.33;;
78489;SDS011;67776;52.012;4.736;2024-02-21T07:19:50;25.30;;;9.70;;
78489;SDS011;67776;52.012;4.736;2024-02-21T07:22:16;25.53;;;10.47;;
78489;SDS011;67776;52.012;4.736;2024-02-21T07:24:41;25.50;;;9.57;;
78489;SDS011;67776;52.012;4.736;2024-02-21T07:27:06;25.17;;;9.83;;
78489;SDS011;67776;52.012;4.736;2024-02-21T07:29:32;23.33;;;10.20;;
78489;SDS011;67776;52.012;4.736;2024-02-21T07:31:57;19.73;;;9.87;;
78489;SDS011;67776;52.012;4.736;2024-02-21T07:34:22;28.37;;;10.17;;
78489;SDS011;67776;52.012;4.736;2024-02-21T07:36:47;26.77;;;10.30;;
78489;SDS011;67776;52.012;4.736;2024-02-21T07:39:13;26.23;;;11.17;;
78489;SDS011;67776;52.012;4.736;2024-02-21T07:41:38;25.13;;;10.73;;
78489;SDS011;67776;52.012;4.736;2024-02-21T07:44:05;24.33;;;10.82;;
78489;SDS011;67776;52.012;4.736;2024-02-21T07:46:30;24.50;;;10.90;;
78489;SDS011;67776;52.012;4.736;2024-02-21T07:48:56;26.48;;;11.55;;
78489;SDS011;67776;52.012;4.736;2024-02-21T07:51:21;29.13;;;11.87;;
78489;SDS011;67776;52.012;4.736;2024-02-21T07:53:46;24.17;;;10.67;;
78489;SDS011;67776;52.012;4.736;2024-02-21T07:56:12;23.40;;;10.80;;
78489;SDS011;67776;52.012;4.736;2024-02-21T07:58:38;25.67;;;11.23;;
78489;SDS011;67776;52.012;4.736;2024-02-21T08:01:04;21.98;;;10.23;;
78489;SDS011;67776;52.012;4.736;2024-02-21T08:03:30;23.80;;;10.73;;
78489;SDS011;67776;52.012;4.736;2024-02-21T08:05:55;23.47;;;10.53;;
78489;SDS011;67776;52.012;4.736;2024-02-21T08:08:20;24.17;;;10.70;;
78489;SDS011;67776;52.012;4.736;2024-02-21T08:10:47;24.90;;;10.95;;
78489;SDS011;67776;52.012;4.736;2024-02-21T08:13:13;23.63;;;10.82;;
78489;SDS011;67776;52.012;4.736;2024-02-21T08:15:39;23.90;;;10.43;;
78489;SDS011;67776;52.012;4.736;2024-02-21T08:18:06;22.73;;;10.70;;
78489;SDS011;67776;52.012;4.736;2024-02-21T08:20:32;22.33;;;10.13;;
78489;SDS011;67776;52.012;4.736;2024-02-21T08:22:57;23.57;;;10.57;;
78489;SDS011;67776;52.012;4.736;2024-02-21T08:25:22;23.10;;;10.37;;
78489;SDS011;67776;52.012;4.736;2024-02-21T08:27:47;23.67;;;10.65;;
78489;SDS011;67776;52.012;4.736;2024-02-21T08:30:13;22.97;;;10.70;;
78489;SDS011;67776;52.012;4.736;2024-02-21T08:32:38;25.80;;;10.80;;
78489;SDS011;67776;52.012;4.736;2024-02-21T08:35:04;23.40;;;10.60;;
78489;SDS011;67776;52.012;4.736;2024-02-21T08:37:30;25.08;;;11.15;;
78489;SDS011;67776;52.012;4.736;2024-02-21T08:39:55;23.83;;;11.20;;
78489;SDS011;67776;52.012;4.736;2024-02-21T08:42:21;30.58;;;11.40;;
78489;SDS011;67776;52.012;4.736;2024-02-21T08:44:46;26.00;;;12.30;;
78489;SDS011;67776;52.012;4.736;2024-02-21T08:47:12;23.90;;;11.50;;
78489;SDS011;67776;52.012;4.736;2024-02-21T08:49:37;25.20;;;12.17;;
78489;SDS011;67776;52.012;4.736;2024-02-21T08:52:03;22.95;;;11.57;;
78489;SDS011;67776;52.012;4.736;2024-02-21T08:54:29;26.40;;;11.63;;
78489;SDS011;67776;52.012;4.736;2024-02-21T08:56:54;22.10;;;11.00;;
78489;SDS011;67776;52.012;4.736;2024-02-21T08:59:20;24.10;;;12.40;;
78489;SDS011;67776;52.012;4.736;2024-02-21T09:01:46;25.42;;;11.80;;
78489;SDS011;67776;52.012;4.736;2024-02-21T09:04:11;27.20;;;12.43;;
78489;SDS011;67776;52.012;4.736;2024-02-21T09:06:37;24.25;;;11.93;;
78489;SDS011;67776;52.012;4.736;2024-02-21T09:09:06;28.85;;;11.38;;
78489;SDS011;67776;52.012;4.736;2024-02-21T09:11:33;24.20;;;11.83;;
78489;SDS011;67776;52.012;4.736;2024-02-21T09:13:58;26.13;;;11.35;;
78489;SDS011;67776;52.012;4.736;2024-02-21T09:16:24;22.00;;;10.80;;
78489;SDS011;67776;52.012;4.736;2024-02-21T09:18:49;21.67;;;10.93;;
78489;SDS011;67776;52.012;4.736;2024-02-21T09:21:14;22.13;;;11.53;;
78489;SDS011;67776;52.012;4.736;2024-02-21T09:23:39;24.63;;;11.83;;
78489;SDS011;67776;52.012;4.736;2024-02-21T09:26:05;22.83;;;10.93;;
78489;SDS011;67776;52.012;4.736;2024-02-21T09:28:30;25.92;;;10.95;;
78489;SDS011;67776;52.012;4.736;2024-02-21T09:30:55;22.23;;;11.27;;
78489;SDS011;67776;52.012;4.736;2024-02-21T09:33:21;22.50;;;11.70;;
78489;SDS011;67776;52.012;4.736;2024-02-21T09:35:46;21.23;;;10.97;;
78489;SDS011;67776;52.012;4.736;2024-02-21T09:38:12;22.02;;;10.88;;
78489;SDS011;67776;52.012;4.736;2024-02-21T09:40:37;25.00;;;10.50;;
78489;SDS011;67776;52.012;4.736;2024-02-21T09:43:04;20.20;;;9.50;;
78489;SDS011;67776;52.012;4.736;2024-02-21T09:45:31;23.00;;;9.60;;
78489;SDS011;67776;52.012;4.736;2024-02-21T09:48:17;19.35;;;10.38;;
78489;SDS011;67776;52.012;4.736;2024-02-21T09:50:51;23.83;;;10.07;;
78489;SDS011;67776;52.012;4.736;2024-02-21T09:53:18;20.55;;;9.98;;
78489;SDS011;67776;52.012;4.736;2024-02-21T09:55:44;22.15;;;9.63;;
78489;SDS011;67776;52.012;4.736;2024-02-21T09:58:11;22.50;;;9.97;;
78489;SDS011;67776;52.012;4.736;2024-02-21T10:00:36;19.25;;;9.68;;
78489;SDS011;67776;52.012;4.736;2024-02-21T10:03:02;19.53;;;8.97;;
78489;SDS011;67776;52.012;4.736;2024-02-21T10:05:32;21.13;;;9.43;;
78489;SDS011;67776;52.012;4.736;2024-02-21T10:07:59;18.00;;;9.70;;
78489;SDS011;67776;52.012;4.736;2024-02-21T10:10:24;18.90;;;9.10;;
78489;SDS011;67776;52.012;4.736;2024-02-21T10:12:50;16.13;;;8.77;;
78489;SDS011;67776;52.012;4.736;2024-02-21T10:15:21;17.63;;;8.52;;
78489;SDS011;67776;52.012;4.736;2024-02-21T10:17:48;15.35;;;8.00;;
78489;SDS011;67776;52.012;4.736;2024-02-21T10:20:14;16.88;;;8.20;;
78489;SDS011;67776;52.012;4.736;2024-02-21T10:22:41;14.67;;;8.40;;
78489;SDS011;67776;52.012;4.736;2024-02-21T10:25:10;17.27;;;8.13;;
78489;SDS011;67776;52.012;4.736;2024-02-21T10:27:36;17.20;;;8.57;;
78489;SDS011;67776;52.012;4.736;2024-02-21T10:30:03;18.42;;;8.90;;
78489;SDS011;67776;52.012;4.736;2024-02-21T10:32:49;19.38;;;8.63;;
78489;SDS011;67776;52.012;4.736;2024-02-21T10:35:31;17.90;;;9.18;;
78489;SDS011;67776;52.012;4.736;2024-02-21T10:37:57;17.92;;;9.00;;
78489;SDS011;67776;52.012;4.736;2024-02-21T10:40:24;18.23;;;9.30;;
78489;SDS011;67776;52.012;4.736;2024-02-21T10:42:56;17.80;;;8.43;;
78489;SDS011;67776;52.012;4.736;2024-02-21T10:45:25;15.63;;;8.70;;
78489;SDS011;67776;52.012;4.736;2024-02-21T10:48:21;18.33;;;8.65;;
78489;SDS011;67776;52.012;4.736;2024-02-21T10:50:57;18.40;;;9.63;;
78489;SDS011;67776;52.012;4.736;2024-02-21T10:53:44;17.73;;;9.80;;
78489;SDS011;67776;52.012;4.736;2024-02-21T10:56:28;17.67;;;9.98;;
78489;SDS011;67776;52.012;4.736;2024-02-21T10:58:59;19.55;;;10.93;;
78489;SDS011;67776;52.012;4.736;2024-02-21T11:01:26;19.48;;;11.63;;
78489;SDS011;67776;52.012;4.736;2024-02-21T11:03:54;18.08;;;11.07;;
78489;SDS011;67776;52.012;4.736;2024-02-21T11:06:22;20.80;;;10.67;;
78489;SDS011;67776;52.012;4.736;2024-02-21T11:08:58;17.38;;;10.38;;
78489;SDS011;67776;52.012;4.736;2024-02-21T11:11:28;20.45;;;11.23;;
78489;SDS011;67776;52.012;4.736;2024-02-21T11:14:03;18.55;;;10.98;;
78489;SDS011;67776;52.012;4.736;2024-02-21T11:16:34;16.90;;;10.57;;
78489;SDS011;67776;52.012;4.736;2024-02-21T11:19:08;17.40;;;10.03;;
78489;SDS011;67776;52.012;4.736;2024-02-21T11:21:57;17.42;;;10.43;;
78489;SDS011;67776;52.012;4.736;2024-02-21T11:24:26;18.88;;;10.30;;
78489;SDS011;67776;52.012;4.736;2024-02-21T11:26:56;19.02;;;10.88;;
78489;SDS011;67776;52.012;4.736;2024-02-21T11:29:33;20.65;;;11.05;;
78489;SDS011;67776;52.012;4.736;2024-02-21T11:31:58;20.00;;;10.80;;
78489;SDS011;67776;52.012;4.736;2024-02-21T11:34:23;17.50;;;10.63;;
78489;SDS011;67776;52.012;4.736;2024-02-21T11:36:49;21.07;;;10.87;;
78489;SDS011;67776;52.012;4.736;2024-02-21T11:39:23;21.45;;;10.43;;
78489;SDS011;67776;52.012;4.736;2024-02-21T11:42:00;20.30;;;10.27;;
78489;SDS011;67776;52.012;4.736;2024-02-21T11:44:29;18.95;;;9.45;;
78489;SDS011;67776;52.012;4.736;2024-02-21T11:46:55;17.17;;;9.70;;
78489;SDS011;67776;52.012;4.736;2024-02-21T11:49:20;19.07;;;9.77;;
78489;SDS011;67776;52.012;4.736;2024-02-21T11:51:46;15.33;;;9.90;;
78489;SDS011;67776;52.012;4.736;2024-02-21T11:54:11;15.97;;;9.17;;
78489;SDS011;67776;52.012;4.736;2024-02-21T11:56:41;15.85;;;9.05;;
78489;SDS011;67776;52.012;4.736;2024-02-21T11:59:06;17.90;;;9.17;;
78489;SDS011;67776;52.012;4.736;2024-02-21T12:01:31;15.97;;;9.07;;
78489;SDS011;67776;52.012;4.736;2024-02-21T12:03:57;16.48;;;8.98;;
78489;SDS011;67776;52.012;4.736;2024-02-21T12:06:22;15.87;;;8.73;;
78489;SDS011;67776;52.012;4.736;2024-02-21T12:08:48;17.87;;;8.70;;
78489;SDS011;67776;52.012;4.736;2024-02-21T12:11:18;14.52;;;8.75;;
78489;SDS011;67776;52.012;4.736;2024-02-21T12:13:47;13.83;;;7.70;;
78489;SDS011;67776;52.012;4.736;2024-02-21T12:16:23;15.30;;;8.32;;
78489;SDS011;67776;52.012;4.736;2024-02-21T12:18:48;12.90;;;7.83;;
78489;SDS011;67776;52.012;4.736;2024-02-21T12:21:13;13.20;;;7.38;;
78489;SDS011;67776;52.012;4.736;2024-02-21T12:23:40;12.60;;;7.23;;
78489;SDS011;67776;52.012;4.736;2024-02-21T12:26:06;14.73;;;7.20;;
78489;SDS011;67776;52.012;4.736;2024-02-21T12:28:33;15.77;;;7.03;;
78489;SDS011;67776;52.012;4.736;2024-02-21T12:30:58;14.98;;;7.90;;
78489;SDS011;67776;52.012;4.736;2024-02-21T12:33:23;12.00;;;7.40;;
78489;SDS011;67776;52.012;4.736;2024-02-21T12:35:49;16.43;;;7.20;;
78489;SDS011;67776;52.012;4.736;2024-02-21T12:38:14;15.10;;;7.20;;
78489;SDS011;67776;52.012;4.736;2024-02-21T12:40:39;13.73;;;6.63;;
78489;SDS011;67776;52.012;4.736;2024-02-21T12:43:05;13.87;;;6.80;;
78489;SDS011;67776;52.012;4.736;2024-02-21T12:45:30;13.20;;;6.65;;
78489;SDS011;67776;52.012;4.736;2024-02-21T12:47:56;12.23;;;5.93;;
78489;SDS011;67776;52.012;4.736;2024-02-21T12:50:21;12.67;;;6.17;;
78489;SDS011;67776;52.012;4.736;2024-02-21T12:52:47;10.70;;;5.90;;
78489;SDS011;67776;52.012;4.736;2024-02-21T12:55:14;14.10;;;6.40;;
78489;SDS011;67776;52.012;4.736;2024-02-21T12:57:41;12.07;;;6.33;;
78489;SDS011;67776;52.012;4.736;2024-02-21T13:00:06;13.00;;;6.32;;
78489;SDS011;67776;52.012;4.736;2024-02-21T13:02:34;10.73;;;6.20;;
78489;SDS011;67776;52.012;4.736;2024-02-21T13:05:02;13.77;;;6.75;;
78489;SDS011;67776;52.012;4.736;2024-02-21T13:07:28;12.02;;;6.20;;
78489;SDS011;67776;52.012;4.736;2024-02-21T13:09:54;13.55;;;6.80;;
78489;SDS011;67776;52.012;4.736;2024-02-21T13:12:19;14.07;;;7.33;;
78489;SDS011;67776;52.012;4.736;2024-02-21T13:14:45;11.80;;;7.03;;
78489;SDS011;67776;52.012;4.736;2024-02-21T13:17:10;14.00;;;6.90;;
78489;SDS011;67776;52.012;4.736;2024-02-21T13:19:35;14.57;;;7.00;;
78489;SDS011;67776;52.012;4.736;2024-02-21T13:22:01;12.93;;;5.70;;
78489;SDS011;67776;52.012;4.736;2024-02-21T13:24:27;12.03;;;5.53;;
78489;SDS011;67776;52.012;4.736;2024-02-21T13:26:52;13.57;;;6.07;;
78489;SDS011;67776;52.012;4.736;2024-02-21T13:29:18;14.37;;;5.23;;
78489;SDS011;67776;52.012;4.736;2024-02-21T13:31:43;11.43;;;5.50;;
78489;SDS011;67776;52.012;4.736;2024-02-21T13:34:09;13.52;;;5.20;;
78489;SDS011;67776;52.012;4.736;2024-02-21T13:36:34;12.83;;;5.23;;
78489;SDS011;67776;52.012;4.736;2024-02-21T13:38:59;12.17;;;5.70;;
78489;SDS011;67776;52.012;4.736;2024-02-21T13:41:25;11.43;;;5.03;;
78489;SDS011;67776;52.012;4.736;2024-02-21T13:43:50;12.50;;;5.37;;
78489;SDS011;67776;52.012;4.736;2024-02-21T13:46:16;12.88;;;5.68;;
78489;SDS011;67776;52.012;4.736;2024-02-21T13:48:41;10.33;;;5.53;;
78489;SDS011;67776;52.012;4.736;2024-02-21T13:51:07;12.37;;;5.90;;
78489;SDS011;67776;52.012;4.736;2024-02-21T13:53:33;12.60;;;5.53;;
78489;SDS011;67776;52.012;4.736;2024-02-21T13:55:59;10.82;;;5.68;;
78489;SDS011;67776;52.012;4.736;2024-02-21T13:58:25;11.55;;;5.43;;
78489;SDS011;67776;52.012;4.736;2024-02-21T14:00:51;13.13;;;6.47;;
78489;SDS011;67776;52.012;4.736;2024-02-21T14:03:17;11.60;;;6.07;;
78489;SDS011;67776;52.012;4.736;2024-02-21T14:05:43;12.47;;;6.63;;
78489;SDS011;67776;52.012;4.736;2024-02-21T14:08:09;15.47;;;6.40;;
78489;SDS011;67776;52.012;4.736;2024-02-21T14:10:34;12.32;;;7.00;;
78489;SDS011;67776;52.012;4.736;2024-02-21T14:13:00;17.43;;;6.70;;
78489;SDS011;67776;52.012;4.736;2024-02-21T14:15:25;12.57;;;6.90;;
78489;SDS011;67776;52.012;4.736;2024-02-21T14:17:51;13.15;;;6.50;;
78489;SDS011;67776;52.012;4.736;2024-02-21T14:20:16;13.13;;;7.17;;
78489;SDS011;67776;52.012;4.736;2024-02-21T14:22:41;16.67;;;6.73;;
78489;SDS011;67776;52.012;4.736;2024-02-21T14:25:07;13.47;;;6.93;;
78489;SDS011;67776;52.012;4.736;2024-02-21T14:27:32;14.97;;;7.37;;
78489;SDS011;67776;52.012;4.736;2024-02-21T14:29:58;14.98;;;7.10;;